createdAt,value
2018-05-03T00:00:37.390Z,67.10
2018-05-03T00:03:04.842Z,67.10
2018-05-03T00:05:32.303Z,67.70
2018-05-03T00:07:59.787Z,67.40
2018-05-03T00:10:27.248Z,68.20
2018-05-03T00:12:55.409Z,68.30
2018-05-03T00:15:22.990Z,68.80
2018-05-03T00:17:50.473Z,69.00
2018-05-03T00:20:18.678Z,70.00
2018-05-03T00:22:46.177Z,69.90
2018-05-03T00:25:13.723Z,70.10
2018-05-03T00:27:41.178Z,70.60
2018-05-03T00:30:08.733Z,71.00
2018-05-03T00:32:36.191Z,71.10
2018-05-03T00:35:03.691Z,71.60
2018-05-03T00:37:32.467Z,71.90
2018-05-03T00:40:00.698Z,72.40
2018-05-03T00:42:28.170Z,72.30
2018-05-03T00:44:55.608Z,72.50
2018-05-03T00:47:23.066Z,72.50
2018-05-03T00:49:50.627Z,73.10
2018-05-03T00:52:18.225Z,73.30
2018-05-03T00:54:48.442Z,73.90
2018-05-03T00:57:16.861Z,73.90
2018-05-03T00:59:44.346Z,74.20
2018-05-03T01:02:11.789Z,74.20
2018-05-03T01:04:39.363Z,74.40
2018-05-03T01:07:06.930Z,74.60
2018-05-03T01:09:34.474Z,74.70
2018-05-03T01:12:01.934Z,75.00
2018-05-03T01:14:29.418Z,75.00
2018-05-03T01:16:57.654Z,76.10
2018-05-03T01:19:25.242Z,76.10
2018-05-03T01:21:52.713Z,76.10
2018-05-03T01:24:21.120Z,76.40
2018-05-03T01:26:48.610Z,76.30
2018-05-03T01:29:16.208Z,76.90
2018-05-03T01:31:44.666Z,77.30
2018-05-03T01:34:12.202Z,77.50
2018-05-03T01:36:39.787Z,77.70
2018-05-03T01:39:07.318Z,77.70
2018-05-03T01:41:34.792Z,78.10
2018-05-03T01:44:03.009Z,78.20
2018-05-03T01:46:30.511Z,78.20
2018-05-03T01:48:57.953Z,78.50
2018-05-03T01:51:25.430Z,78.20
2018-05-03T01:53:52.983Z,78.20
2018-05-03T01:56:20.460Z,78.30
2018-05-03T01:58:48.010Z,78.40
2018-05-03T02:01:16.233Z,78.40
2018-05-03T02:03:43.694Z,78.50
2018-05-03T02:06:11.278Z,78.60
2018-05-03T02:08:38.896Z,78.80
2018-05-03T02:11:06.357Z,78.80
2018-05-03T05:14:18.004Z,87.30
2018-05-03T05:16:46.325Z,87.40
2018-05-03T05:19:13.803Z,87.30
2018-05-03T05:21:41.414Z,86.10
2018-05-03T05:24:10.017Z,85.60
2018-05-03T05:26:37.477Z,85.20
2018-05-03T05:29:04.970Z,84.80
2018-05-03T05:31:33.197Z,85.60
2018-05-03T05:34:00.676Z,85.20
2018-05-03T05:36:28.124Z,85.20
2018-05-03T05:38:55.676Z,84.50
2018-05-03T05:41:23.078Z,84.50
2018-05-03T05:43:51.313Z,82.30
2018-05-03T05:46:18.781Z,82.20
2018-05-03T05:48:46.221Z,80.60
2018-05-03T05:51:13.772Z,78.90
2018-05-03T05:53:41.231Z,78.80
2018-05-03T05:56:08.698Z,78.10
2018-05-03T05:58:36.259Z,78.00
2018-05-03T06:01:03.721Z,78.30
2018-05-03T06:03:31.189Z,77.30
2018-05-03T06:05:58.742Z,76.60
2018-05-03T06:08:26.206Z,75.00
2018-05-03T06:10:54.453Z,75.30
2018-05-03T06:13:21.916Z,75.30
2018-05-03T06:15:49.466Z,72.90
2018-05-03T06:18:17.023Z,72.90
2018-05-03T06:20:44.579Z,72.50
2018-05-03T06:23:12.035Z,71.00
2018-05-03T06:25:39.502Z,71.30
2018-05-03T06:28:06.971Z,70.50
2018-05-03T06:30:34.498Z,70.00
2018-05-03T06:33:02.093Z,69.50
2018-05-03T06:35:29.531Z,69.90
2018-05-03T06:37:56.970Z,69.70
2018-05-03T06:40:24.526Z,69.50
2018-05-03T06:42:52.094Z,69.30
2018-05-03T06:45:19.698Z,70.30
2018-05-03T06:47:47.084Z,68.80
2018-05-03T06:50:14.601Z,70.10
2018-05-03T06:52:42.802Z,66.30
2018-05-03T06:55:10.274Z,66.30
2018-05-03T06:57:37.847Z,66.90
2018-05-03T07:00:05.289Z,65.20
2018-05-03T07:02:32.846Z,68.10
2018-05-03T07:05:00.306Z,68.10
2018-05-03T07:07:27.866Z,65.60
2018-05-03T07:09:55.431Z,66.20
2018-05-03T07:12:22.990Z,66.10
2018-05-03T07:14:50.533Z,65.40
2018-05-03T07:17:17.986Z,66.60
2018-05-03T07:19:45.561Z,63.60
2018-05-03T07:22:12.999Z,64.70
2018-05-03T07:24:40.453Z,64.80
2018-05-03T07:27:07.903Z,64.40
2018-05-03T07:29:35.342Z,63.50
2018-05-03T07:32:02.832Z,62.80
2018-05-03T07:34:30.271Z,60.90
2018-05-03T07:36:57.842Z,62.50
2018-05-03T07:39:25.288Z,62.10
2018-05-03T07:41:52.830Z,60.50
2018-05-03T07:44:20.396Z,60.30
2018-05-03T07:46:47.872Z,60.70
2018-05-03T07:49:15.622Z,59.00
2018-05-03T07:51:43.393Z,57.40
2018-05-03T07:54:10.846Z,56.90
2018-05-03T07:56:38.341Z,56.40
2018-05-03T07:59:05.741Z,55.70
2018-05-03T08:01:33.214Z,56.00
2018-05-03T08:04:00.672Z,57.50
2018-05-03T08:06:28.125Z,55.30
2018-05-03T08:08:55.598Z,54.60
2018-05-03T08:11:23.046Z,54.90
2018-05-03T08:13:50.597Z,52.30
2018-05-03T08:16:18.147Z,53.90
2018-05-03T08:18:45.601Z,50.70
2018-05-03T08:21:13.087Z,50.70
2018-05-03T08:23:41.313Z,51.20
2018-05-03T08:26:09.877Z,51.20
2018-05-03T08:28:37.486Z,49.90
2018-05-03T08:31:04.946Z,48.60
2018-05-03T08:33:32.407Z,48.80
2018-05-03T08:35:59.877Z,49.20
2018-05-03T08:38:27.403Z,47.40
2018-05-03T08:40:54.859Z,47.30
2018-05-03T08:43:22.315Z,47.10
2018-05-03T08:45:49.769Z,46.70
2018-05-03T08:48:17.242Z,44.20
2018-05-03T08:50:44.789Z,45.10
2018-05-03T08:53:12.245Z,48.00
2018-05-03T08:55:39.793Z,46.30
2018-05-03T08:58:08.374Z,44.50
2018-05-03T09:00:35.822Z,43.20
2018-05-03T09:03:03.304Z,43.30
2018-05-03T09:05:30.861Z,44.90
2018-05-03T09:08:00.172Z,43.00
2018-05-03T09:10:27.706Z,43.10
2018-05-03T09:12:55.149Z,41.30
2018-05-03T09:15:22.733Z,41.50
2018-05-03T09:17:50.273Z,39.60
2018-05-03T09:20:17.911Z,41.40
2018-05-03T09:22:45.333Z,41.10
2018-05-03T09:25:13.873Z,38.30
2018-05-03T09:27:41.329Z,38.20
2018-05-03T09:30:08.891Z,38.30
2018-05-03T09:32:36.361Z,38.60
2018-05-03T09:35:03.810Z,35.30
2018-05-03T09:37:31.347Z,37.50
2018-05-03T09:39:58.798Z,39.40
2018-05-03T09:42:26.558Z,40.70
2018-05-03T09:44:54.050Z,39.80
2018-05-03T09:47:21.762Z,39.60
2018-05-03T09:49:49.250Z,39.30
2018-05-03T09:52:18.690Z,37.50
2018-05-03T09:54:46.923Z,35.30
2018-05-03T09:57:14.380Z,35.20
2018-05-03T09:59:41.955Z,37.60
2018-05-03T10:02:10.158Z,36.80
2018-05-03T10:04:37.700Z,36.70
2018-05-03T10:07:05.237Z,37.30
2018-05-03T10:09:32.800Z,38.50
2018-05-03T10:12:00.352Z,41.00
2018-05-03T10:14:27.810Z,36.00
2018-05-03T10:16:57.090Z,36.60
2018-05-03T10:19:24.572Z,36.60
2018-05-03T10:21:52.796Z,36.30
2018-05-03T10:24:20.237Z,34.90
2018-05-03T10:26:47.688Z,39.90
2018-05-03T10:29:16.241Z,34.30
2018-05-03T10:31:43.787Z,34.40
2018-05-03T10:34:11.239Z,38.50
2018-05-03T10:36:38.690Z,38.90
2018-05-03T10:39:06.260Z,37.90
2018-05-03T10:41:34.521Z,38.00
2018-05-03T10:44:02.082Z,38.00
2018-05-03T10:46:29.638Z,38.30
2018-05-03T10:48:57.107Z,35.90
2018-05-03T10:51:24.537Z,35.40
2018-05-03T10:53:51.978Z,38.00
2018-05-03T10:56:19.783Z,36.30
2018-05-03T10:58:47.209Z,37.30
2018-05-03T11:01:14.689Z,38.10
2018-05-03T11:03:42.139Z,37.40
2018-05-03T11:06:09.602Z,36.50
2018-05-03T11:08:37.074Z,37.50
2018-05-03T11:11:05.300Z,39.00
2018-05-03T11:13:32.730Z,38.50
2018-05-03T11:16:00.242Z,38.30
2018-05-03T11:18:27.683Z,34.00
2018-05-03T11:20:55.176Z,35.50
2018-05-03T11:23:23.418Z,31.90
2018-05-03T11:25:50.977Z,31.90
2018-05-03T11:28:18.421Z,33.40
2018-05-03T11:30:46.870Z,33.40
2018-05-03T11:33:14.375Z,34.80
2018-05-03T11:35:42.578Z,34.90
2018-05-03T11:38:10.026Z,34.60
2018-05-03T11:40:38.361Z,32.50
2018-05-03T11:43:05.803Z,32.60
2018-05-03T11:45:33.371Z,32.00
2018-05-03T11:48:01.146Z,32.00
2018-05-03T11:50:28.902Z,33.10
2018-05-03T11:52:56.378Z,31.60
2018-05-03T11:55:23.915Z,31.60
2018-05-03T11:57:51.384Z,33.90
2018-05-03T12:00:18.825Z,31.90
2018-05-03T12:02:47.059Z,32.00
2018-05-03T12:05:14.507Z,32.10
2018-05-03T12:07:42.925Z,33.10
2018-05-03T12:10:10.378Z,33.20
2018-05-03T12:12:37.839Z,34.50
2018-05-03T12:15:05.314Z,37.10
2018-05-03T12:17:33.522Z,35.90
2018-05-03T12:20:01.135Z,35.90
2018-05-03T12:22:28.573Z,35.50
2018-05-03T12:24:56.344Z,32.20
2018-05-03T12:27:23.883Z,32.60
2018-05-03T12:29:51.318Z,33.20
2018-05-03T12:32:18.811Z,31.10
2018-05-03T12:34:46.282Z,30.60
2018-05-03T12:37:13.833Z,30.80
2018-05-03T12:39:41.283Z,32.10
2018-05-03T12:42:08.854Z,32.30
2018-05-03T12:44:37.296Z,31.20
2018-05-03T12:47:05.087Z,31.20
2018-05-03T12:49:32.554Z,31.70
2018-05-03T12:52:01.814Z,30.00
2018-05-03T12:54:30.351Z,30.00
2018-05-03T12:56:58.596Z,30.70
2018-05-03T12:59:26.145Z,30.60
2018-05-03T13:01:53.689Z,33.70
2018-05-03T13:04:21.123Z,32.00
2018-05-03T13:06:48.612Z,33.90
2018-05-03T13:09:18.051Z,34.80
2018-05-03T13:11:46.525Z,30.30
2018-05-03T13:14:14.086Z,30.20
2018-05-03T13:16:43.022Z,29.90
2018-05-03T13:19:10.534Z,29.90
2018-05-03T13:21:38.066Z,32.00
2018-05-03T13:24:05.703Z,33.60
2018-05-03T13:26:34.207Z,31.90
2018-05-03T13:29:01.776Z,33.90
2018-05-03T13:31:29.315Z,33.90
2018-05-03T13:33:56.770Z,32.90
2018-05-03T13:36:24.225Z,34.80
2018-05-03T13:38:51.804Z,33.90
2018-05-03T13:41:20.034Z,34.30
2018-05-03T13:43:47.454Z,34.40
2018-05-03T13:46:15.808Z,35.70
2018-05-03T13:48:43.358Z,35.70
2018-05-03T13:51:10.793Z,35.50
2018-05-03T13:53:38.246Z,33.70
2018-05-03T13:56:05.768Z,33.10
2018-05-03T13:58:34.011Z,32.40
2018-05-03T14:01:01.451Z,32.30
2018-05-03T14:03:28.935Z,30.80
2018-05-03T14:05:57.157Z,30.00
2018-05-03T14:08:24.650Z,30.00
2018-05-03T14:10:53.070Z,30.40
2018-05-03T14:13:20.537Z,29.60
2018-05-03T14:15:47.982Z,31.40
2018-05-03T14:18:15.578Z,30.10
2018-05-03T14:20:43.024Z,31.50
2018-05-03T14:23:10.502Z,31.10
2018-05-03T14:25:38.721Z,30.00
2018-05-03T14:28:06.201Z,30.30
2018-05-03T14:30:34.032Z,31.40
2018-05-03T14:33:02.277Z,32.80
2018-05-03T14:35:29.850Z,32.80
2018-05-03T14:37:58.294Z,33.30
2018-05-03T14:40:25.742Z,33.30
2018-05-03T14:42:53.421Z,31.30
2018-05-03T14:45:20.886Z,31.30
2018-05-03T14:47:48.358Z,33.80
2018-05-03T14:50:16.618Z,33.20
2018-05-03T14:52:44.825Z,31.90
2018-05-03T14:55:12.303Z,32.00
2018-05-03T14:57:39.788Z,31.30
2018-05-03T15:00:07.347Z,33.50
2018-05-03T15:02:34.907Z,32.40
2018-05-03T15:05:02.434Z,32.00
2018-05-03T15:07:29.918Z,33.00
2018-05-03T15:09:57.374Z,32.10
2018-05-03T15:12:25.789Z,30.50
2018-05-03T15:14:54.015Z,29.30
2018-05-03T15:17:21.476Z,29.30
2018-05-03T15:19:49.082Z,31.30
2018-05-03T15:22:17.367Z,33.00
2018-05-03T15:24:44.780Z,32.90
2018-05-03T15:27:12.209Z,30.40
2018-05-03T15:29:40.672Z,30.40
2018-05-03T15:32:08.153Z,31.50
2018-05-03T15:34:35.622Z,31.20
2018-05-03T15:37:03.169Z,32.20
2018-05-03T15:39:30.614Z,31.80
2018-05-03T15:41:58.096Z,31.80
2018-05-03T15:44:25.563Z,31.70
2018-05-03T15:46:53.097Z,31.10
2018-05-03T15:49:20.581Z,33.50
2018-05-03T15:51:48.899Z,32.60
2018-05-03T15:54:16.350Z,32.50
2018-05-03T15:56:43.897Z,31.60
2018-05-03T15:59:11.366Z,31.40
2018-05-03T16:01:38.895Z,33.10
2018-05-03T16:04:07.095Z,33.20
2018-05-03T16:06:34.554Z,33.10
2018-05-03T16:09:02.008Z,32.70
2018-05-03T16:11:29.459Z,32.00
2018-05-03T16:13:56.925Z,34.10
2018-05-03T16:16:25.090Z,33.50
2018-05-03T16:18:53.484Z,34.10
2018-05-03T16:21:20.918Z,35.20
2018-05-03T16:23:48.409Z,35.40
2018-05-03T16:26:15.907Z,37.00
2018-05-03T16:28:44.109Z,37.20
2018-05-03T16:31:11.580Z,37.20
2018-05-03T16:33:39.022Z,37.20
2018-05-03T16:36:06.509Z,36.40
2018-05-03T16:38:34.876Z,37.60
2018-05-03T16:41:02.418Z,37.80
2018-05-03T16:43:29.894Z,38.30
2018-05-03T16:45:57.354Z,39.80
2018-05-03T16:48:24.805Z,39.00
2018-05-03T16:50:52.541Z,39.90
2018-05-03T16:53:20.190Z,40.50
2018-05-03T16:55:47.822Z,40.80
2018-05-03T16:58:16.086Z,39.30
2018-05-03T17:00:43.538Z,39.30
2018-05-03T17:03:12.494Z,41.00
2018-05-03T17:05:39.930Z,40.90
2018-05-03T17:08:07.380Z,39.40
2018-05-03T17:10:34.869Z,40.40
2018-05-03T17:13:02.329Z,41.30
2018-05-03T17:15:30.694Z,42.40
2018-05-03T17:17:58.161Z,41.30
2018-05-03T17:20:25.602Z,42.80
2018-05-03T17:22:53.044Z,43.80
2018-05-03T17:25:20.500Z,43.80
2018-05-03T17:27:47.989Z,43.50
2018-05-03T17:30:15.387Z,44.20
2018-05-03T17:32:42.850Z,43.40
2018-05-03T17:35:10.287Z,43.00
2018-05-03T17:37:38.518Z,42.30
2018-05-03T17:40:06.091Z,42.30
2018-05-03T17:42:33.535Z,42.90
2018-05-03T17:45:01.094Z,43.50
2018-05-03T17:47:28.551Z,44.50
2018-05-03T17:49:56.013Z,42.60
2018-05-03T17:52:23.589Z,44.20
2018-05-03T17:54:51.185Z,44.30
2018-05-03T17:57:18.645Z,45.50
2018-05-03T17:59:46.136Z,45.90
2018-05-03T18:02:13.591Z,46.50
2018-05-03T18:04:41.208Z,46.90
2018-05-03T18:07:08.588Z,45.70
2018-05-03T18:09:36.267Z,47.70
2018-05-03T18:12:03.727Z,46.50
2018-05-03T18:14:31.208Z,45.80
2018-05-03T18:16:58.877Z,46.60
2018-05-03T18:19:27.080Z,47.20
2018-05-03T18:21:54.583Z,47.20
2018-05-03T18:24:22.035Z,47.70
2018-05-03T18:26:49.486Z,47.80
2018-05-03T18:29:16.937Z,48.10
2018-05-03T18:31:44.500Z,48.70
2018-05-03T18:34:11.999Z,48.10
2018-05-03T18:36:39.400Z,48.60
2018-05-03T18:39:06.980Z,48.20
2018-05-03T18:41:34.572Z,48.50
2018-05-03T18:44:02.064Z,48.50
2018-05-03T18:46:29.426Z,48.80
2018-05-03T18:48:56.916Z,48.30
2018-05-03T18:51:24.443Z,48.90
2018-05-03T18:53:52.135Z,50.00
2018-05-03T18:56:20.387Z,53.80
2018-05-03T18:58:47.848Z,53.80
2018-05-03T19:01:15.344Z,54.40
2018-05-03T19:03:42.754Z,55.80
2018-05-03T19:06:10.210Z,55.30
2018-05-03T19:08:37.646Z,57.10
2018-05-03T19:11:05.413Z,57.70
2018-05-03T19:13:32.862Z,58.10
2018-05-03T19:16:00.322Z,58.80
2018-05-03T19:18:27.871Z,59.90
2018-05-03T19:20:55.312Z,60.10
2018-05-03T19:23:22.798Z,60.80
2018-05-03T19:25:50.252Z,60.20
2018-05-03T19:28:17.702Z,60.50
2018-05-03T19:30:45.148Z,61.10
2018-05-03T19:33:12.617Z,61.30
2018-05-03T19:35:40.072Z,60.80
2018-05-03T19:38:07.529Z,60.60
2018-05-03T19:40:35.089Z,61.40
2018-05-03T19:43:02.530Z,62.00
2018-05-03T19:45:29.985Z,62.10
2018-05-03T19:47:58.429Z,62.10
2018-05-03T19:50:26.717Z,63.30
2018-05-03T19:52:54.110Z,63.30
2018-05-03T19:55:21.621Z,62.70
2018-05-03T19:57:49.040Z,63.70
2018-05-03T20:00:16.480Z,65.20
2018-05-03T20:02:43.938Z,65.30
2018-05-03T20:05:11.382Z,65.50
2018-05-03T20:07:38.829Z,66.50
2018-05-03T20:10:06.290Z,66.00
2018-05-03T20:12:33.743Z,65.50
2018-05-03T20:15:01.315Z,66.50
2018-05-03T20:17:28.868Z,67.20
2018-05-03T20:19:56.294Z,66.80
2018-05-03T20:22:24.086Z,67.70
2018-05-03T20:24:51.541Z,67.60
2018-05-03T20:27:18.983Z,68.40
2018-05-03T20:29:46.438Z,67.70
2018-05-03T20:32:14.141Z,67.80
2018-05-03T20:34:41.566Z,68.00
2018-05-03T20:37:09.011Z,68.50
2018-05-03T20:39:36.499Z,68.80
2018-05-03T20:42:03.943Z,68.60
2018-05-03T20:44:31.387Z,69.30
2018-05-03T20:46:58.863Z,69.00
2018-05-03T20:49:26.604Z,69.90
2018-05-03T20:51:54.081Z,70.40
2018-05-03T20:54:21.514Z,70.50
2018-05-03T20:56:49.004Z,69.80
2018-05-03T20:59:17.257Z,70.80
2018-05-03T21:01:44.726Z,70.80
2018-05-03T21:04:12.308Z,71.10
2018-05-03T21:06:40.609Z,71.00
2018-05-03T21:09:08.090Z,70.90
2018-05-03T21:11:35.522Z,70.70
2018-05-03T21:14:03.038Z,71.10
2018-05-03T21:16:30.565Z,71.10
2018-05-03T21:18:58.019Z,71.50
2018-05-03T21:21:25.481Z,72.00
2018-05-03T21:23:52.921Z,72.60
2018-05-03T21:26:20.395Z,72.50
2018-05-03T21:28:47.827Z,72.00
2018-05-03T21:31:15.290Z,71.90
2018-05-03T21:33:42.730Z,72.10
2018-05-03T21:36:10.183Z,71.90
2018-05-03T21:38:37.665Z,73.00
